Sioux Rapids, IA

6:20 AM CDT on April 25, 2015 (GMT -0500)
IADOT | | Change Station
CLOSE
Current Station
Personal Weather Station
Location: Truesdale, IA
Elevation: 1328 ft
Nearby Weather Stations

Elev 1328 ft 42.75 °N, 95.15 °W | Updated 28 minutes ago

Overcast
Overcast
44 °F
Feels Like 36 °F
N
20
Wind Variable Wind from East
Gusts 29.0 mph

Today
High -- | Low -- °F
--% Chance of Precip.
Yesterday
High -- | Low -- °F
Precip. -- in
6:23 AM 8:14 PM
Waxing Crescent, 45% visible
Pressure 29.66 in
Visibility 7.0 miles
Clouds Overcast 1200 ft
Windchill 36 °F
Dew Point 42 °F
Humidity 95%
Rainfall in
Snow Depth Not available.
UV 0 out of 12
Pollen 8.80 out of 12
Air Quality Not available.
Flu Activity Local Activity
METAR KSPW 251053Z AUTO 07018G24KT 7SM OVC012 07/04 A2965 RMK AO2 SLP044 T00670044 TSNO

More Conditions Fewer Conditions

Pressure 29.66 in
Visibility 7.0 miles
Clouds Overcast 1200 ft
Windchill 36 °F
Dew Point 42 °F
Humidity 95%
Rainfall in
Snow Depth Not available.
UV 0 out of 12
Pollen 8.80 out of 12
Air Quality Not available.
Flu Activity Local Activity
METAR KSPW 251053Z AUTO 07018G24KT 7SM OVC012 07/04 A2965 RMK AO2 SLP044 T00670044 TSNO

More Conditions Fewer Conditions

10-Day Weather Forecast

Almanac

Astronomy

Apr. 25, 2015 Rise Set
Actual Time
Civil Twilight
Nautical Twilight
Astronomical Twilight
Moon
Length of Visible Light
Length of Day
Tomorrow will be .
, % of the Moon is Illuminated

Today's Extremes

State Highs State Lows

Community

WunderPhotos

Upload Photos

1,816,639 photos uploaded!

WunderBlogs® & News

Nearby

Air Quality

  Air Quality AQ Index Pollutant
Not available.

Snow Depth

Station Depth Elevation

Earthquake Activity

City Distance Mag. Time & Date
Minimum magnitude displayed is 2.5.

Coastal Water Temperatures

Place Temperature

Stations

Nearby Weather Stations

Station Location Temp. Windchill Dew Point Humidity Wind Precip. Elev Updated Type